createdAt,value
2022-09-27T00:01:11.215Z,13.30
2022-09-27T00:03:38.298Z,11.07
2022-09-27T00:06:26.431Z,15.20
2022-09-27T00:08:53.995Z,12.70
2022-09-27T00:11:35.480Z,13.60
2022-09-27T00:14:02.900Z,11.83
2022-09-27T00:16:32.171Z,11.93
2022-09-27T00:19:01.684Z,14.97
2022-09-27T00:21:30.782Z,9.60
2022-09-27T00:23:59.761Z,10.87
2022-09-27T00:26:27.535Z,12.37
2022-09-27T00:28:54.544Z,15.43
2022-09-27T00:31:24.938Z,10.57
2022-09-27T00:33:53.860Z,9.80
2022-09-27T00:36:22.797Z,10.47
2022-09-27T00:38:50.151Z,11.80
2022-09-27T00:41:21.860Z,12.00
2022-09-27T00:43:51.808Z,9.83
2022-09-27T00:46:33.811Z,9.40
2022-09-27T00:49:13.831Z,12.87
2022-09-27T00:51:43.053Z,15.17
2022-09-27T00:54:12.648Z,8.33
2022-09-27T00:56:40.749Z,10.43
2022-09-27T00:59:58.498Z,14.50
2022-09-27T01:02:25.615Z,14.63
2022-09-27T01:05:01.177Z,12.03
2022-09-27T01:07:33.974Z,15.97
2022-09-27T01:10:10.124Z,17.07
2022-09-27T01:13:05.781Z,8.13
2022-09-27T01:15:59.430Z,9.67
2022-09-27T01:18:45.355Z,11.90
2022-09-27T01:21:35.450Z,8.50
2022-09-27T01:24:34.088Z,7.43
2022-09-27T01:27:50.221Z,8.27
2022-09-27T01:30:26.035Z,9.70
2022-09-27T01:33:21.259Z,7.33
2022-09-27T01:36:28.088Z,7.53
2022-09-27T01:39:22.508Z,13.27
2022-09-27T01:42:10.136Z,9.37
2022-09-27T01:44:55.826Z,10.03
2022-09-27T01:47:35.356Z,8.07
2022-09-27T01:50:06.374Z,8.37
2022-09-27T01:52:46.815Z,8.60
2022-09-27T01:55:18.871Z,11.73
2022-09-27T01:58:12.740Z,11.57
2022-09-27T02:00:43.417Z,6.70
2022-09-27T02:03:40.961Z,7.73
2022-09-27T02:06:26.780Z,10.33
2022-09-27T02:09:20.712Z,7.43
2022-09-27T02:11:58.663Z,7.63
2022-09-27T02:14:35.140Z,10.90
2022-09-27T02:17:42.840Z,9.37
2022-09-27T02:20:31.519Z,6.83
2022-09-27T02:23:26.147Z,6.90
2022-09-27T02:26:16.020Z,8.17
2022-09-27T02:28:56.860Z,5.67
2022-09-27T02:31:23.898Z,9.03
2022-09-27T02:34:02.499Z,6.43
2022-09-27T02:36:37.161Z,8.93
2022-09-27T02:39:04.797Z,5.80
2022-09-27T02:41:34.460Z,5.27
2022-09-27T02:44:44.305Z,9.80
2022-09-27T02:51:04.007Z,6.57
2022-09-27T02:54:06.153Z,8.67
2022-09-27T06:04:25.997Z,5.55
2022-09-27T06:06:56.057Z,3.90
2022-09-27T06:09:36.501Z,5.80
2022-09-27T06:12:23.599Z,7.10
2022-09-27T06:17:37.813Z,4.80
2022-09-27T06:20:10.354Z,7.40
2022-09-27T06:22:41.255Z,5.53
2022-09-27T06:25:13.213Z,4.53
2022-09-27T06:27:40.981Z,7.57
2022-09-27T06:30:43.332Z,7.50
2022-09-27T06:33:18.549Z,3.60
2022-09-27T06:35:49.587Z,5.33
2022-09-27T06:38:28.907Z,6.50
2022-09-27T06:40:58.341Z,4.18
2022-09-27T06:43:26.065Z,5.88
2022-09-27T06:45:54.024Z,3.53
2022-09-27T06:48:22.512Z,3.63
2022-09-27T06:50:50.307Z,4.37
2022-09-27T06:53:18.069Z,8.07
2022-09-27T06:55:45.565Z,3.77
2022-09-27T06:58:31.392Z,5.93
2022-09-27T07:01:04.991Z,4.10
2022-09-27T07:06:07.948Z,4.93
2022-09-27T07:08:36.383Z,7.35
2022-09-27T07:11:06.401Z,7.87
2022-09-27T07:13:46.698Z,3.17
2022-09-27T07:16:24.434Z,9.30
2022-09-27T07:19:04.083Z,5.43
2022-09-27T07:21:32.727Z,8.37
2022-09-27T07:24:08.655Z,5.77
2022-09-27T07:31:05.002Z,8.30
2022-09-27T07:33:34.908Z,6.17
2022-09-27T07:36:15.740Z,4.73
2022-09-27T07:38:42.940Z,5.30
2022-09-27T07:51:28.656Z,4.80
2022-09-27T07:54:46.810Z,5.73
2022-09-27T07:57:15.048Z,5.80
2022-09-27T08:00:27.290Z,6.73
2022-09-27T08:03:18.202Z,6.93
2022-09-27T08:14:04.524Z,4.67
2022-09-27T08:16:36.482Z,5.20
2022-09-27T08:21:52.038Z,3.13
2022-09-27T08:24:23.030Z,5.63
2022-09-27T08:27:10.792Z,5.07
2022-09-27T08:29:56.209Z,5.37
2022-09-27T08:32:40.624Z,6.40
2022-09-27T08:35:18.935Z,6.60
2022-09-27T08:47:26.069Z,7.72
2022-09-27T08:50:39.705Z,6.30
2022-09-27T08:53:12.844Z,20.13
2022-09-27T08:55:52.711Z,8.03
2022-09-27T09:14:52.269Z,3.27
2022-09-27T09:38:14.333Z,4.63
2022-09-27T12:41:23.111Z,2.20
2022-09-27T12:43:54.139Z,2.87
2022-09-27T12:46:46.139Z,2.60
2022-09-27T12:49:27.859Z,3.43
2022-09-27T12:52:08.511Z,3.67
2022-09-27T12:57:18.353Z,3.47
2022-09-27T13:12:35.456Z,1.60
2022-09-27T13:15:26.800Z,2.93
2022-09-27T13:29:05.215Z,3.10
2022-09-27T13:31:54.858Z,3.37
2022-09-27T13:43:47.326Z,2.90
2022-09-27T13:46:28.793Z,2.53
2022-09-27T13:52:32.422Z,2.73
2022-09-27T13:55:12.690Z,3.00
2022-09-27T13:57:51.974Z,4.73
2022-09-27T14:17:50.787Z,2.87
2022-09-27T14:23:40.898Z,2.33
2022-09-27T14:26:26.565Z,2.20
2022-09-27T14:31:36.119Z,2.93
2022-09-27T14:40:26.655Z,3.00
2022-09-27T14:43:00.505Z,3.03
2022-09-27T14:48:33.055Z,2.00
2022-09-27T14:51:22.936Z,2.30
2022-09-27T14:53:58.739Z,2.17
2022-09-27T14:56:41.639Z,2.43
2022-09-27T14:59:17.686Z,2.00
2022-09-27T15:01:58.334Z,1.93
2022-09-27T15:04:29.518Z,1.33
2022-09-27T15:17:46.968Z,3.50
2022-09-27T15:20:34.959Z,3.03
2022-09-27T15:23:06.726Z,1.90
2022-09-27T16:27:35.415Z,2.43
2022-09-27T16:30:03.526Z,2.90
2022-09-27T16:32:31.906Z,3.03
2022-09-27T16:34:59.152Z,3.00
2022-09-27T16:37:26.534Z,3.33
2022-09-27T16:39:53.829Z,2.37
2022-09-27T16:42:21.075Z,4.37
2022-09-27T16:44:51.172Z,4.30
2022-09-27T16:47:18.739Z,3.07
2022-09-27T16:50:04.705Z,3.27
2022-09-27T16:52:33.432Z,2.40
2022-09-27T16:55:01.558Z,4.00
2022-09-27T16:57:29.047Z,3.50
2022-09-27T16:59:58.564Z,3.03
2022-09-27T17:02:30.180Z,3.93
2022-09-27T17:04:57.490Z,7.17
2022-09-27T17:07:26.009Z,3.60
2022-09-27T17:09:54.545Z,4.07
2022-09-27T17:12:23.057Z,5.43
2022-09-27T17:14:51.102Z,2.80
2022-09-27T17:17:18.698Z,2.87
2022-09-27T17:19:46.285Z,2.47
2022-09-27T17:22:13.711Z,2.50
2022-09-27T17:24:40.979Z,2.47
2022-09-27T17:27:08.526Z,3.17
2022-09-27T17:29:39.068Z,1.90
2022-09-27T17:32:08.976Z,2.30
2022-09-27T17:34:36.801Z,2.70
2022-09-27T17:37:06.392Z,4.80
2022-09-27T17:39:38.123Z,3.50
2022-09-27T17:42:07.465Z,2.37
2022-09-27T17:44:35.368Z,3.83
2022-09-27T17:47:21.522Z,2.07
2022-09-27T17:50:07.651Z,4.07
2022-09-27T17:52:35.773Z,2.60
2022-09-27T17:55:04.439Z,3.77
2022-09-27T17:57:36.017Z,3.83
2022-09-27T18:00:04.639Z,3.63
2022-09-27T18:02:32.968Z,4.43
2022-09-27T18:05:03.187Z,4.50
2022-09-27T18:07:34.018Z,3.87
2022-09-27T18:10:01.749Z,3.27
2022-09-27T18:12:35.241Z,3.13
2022-09-27T18:15:03.338Z,6.73
2022-09-27T18:17:37.807Z,4.80
2022-09-27T18:20:06.940Z,7.20
2022-09-27T18:22:34.725Z,3.77
2022-09-27T18:25:02.196Z,6.23
2022-09-27T18:27:29.737Z,6.00
2022-09-27T18:29:57.013Z,2.87
2022-09-27T18:32:24.800Z,4.73
2022-09-27T18:34:52.471Z,3.53
2022-09-27T18:37:20.489Z,6.97
2022-09-27T18:39:49.209Z,5.17
2022-09-27T18:42:16.509Z,4.70
2022-09-27T18:44:44.048Z,6.43
2022-09-27T18:47:11.660Z,6.40
2022-09-27T18:49:39.172Z,6.10
2022-09-27T18:52:06.915Z,5.70
2022-09-27T20:32:15.495Z,6.37
2022-09-27T22:20:39.245Z,9.33
2022-09-27T22:30:05.415Z,7.73
2022-09-27T22:44:59.253Z,10.20
2022-09-27T22:53:03.658Z,10.07
2022-09-27T23:07:39.163Z,11.87
2022-09-27T23:10:58.936Z,13.63
2022-09-27T23:20:00.019Z,14.47
2022-09-27T23:28:21.508Z,13.30
2022-09-27T23:43:13.008Z,16.37
2022-09-27T23:52:53.382Z,16.17
2022-09-27T23:55:20.883Z,17.63
2022-09-27T23:57:48.416Z,16.87
